Jabiru — FGH2644 — position and weather

sailwx.info

Track history (hours):
 
Tides and Currents Weather Stations Pressure Air Temp Water Temp Dewpoint Dewpoint Depression Visibility Wind Speed Wind Dir Waves Ship Positions

Jabiru

Last reported at 2017-Oct-25 16:07 UTC. Time now 2017-Dec-15 16:06 UTC.
Position N 47°35' W 003°01'.
Warning: this ship's position is 50 days out of date.

Length 11 m.

Type: Sailing vessel. MMSI: 227078170.

Date/timePositionNaut miles runAvg speedWind from/ knotsBaromVisibWave heightAir tempDewpointWater temp
2017-Oct-25 16:07N 47°35' W 003°01'1 4.3
2017-Oct-25 15:58N 47°35' W 003°01'3 4.6
2017-Oct-25 15:19N 47°32' W 002°59'2 4.4
2017-Oct-25 14:51N 47°31' W 002°57'2 4.0
2017-Oct-25 14:27N 47°32' W 002°55'1 1.3
2017-Oct-25 13:43N 47°33' W 002°54'0 0.0
2017-Oct-25 13:25N 47°33' W 002°54'0 0.0
2017-Oct-25 12:49N 47°33' W 002°54'0 0.0
2017-Oct-25 12:28N 47°33' W 002°54'0 0.0
2017-Oct-25 11:19N 47°33' W 002°54'0 0.2
2017-Oct-25 10:57N 47°33' W 002°54'2 3.7
2017-Oct-25 10:30N 47°31' W 002°56'2 3.3
2017-Oct-25 10:00N 47°31' W 002°58'2 4.3
2017-Oct-25 09:29N 47°33' W 003°00'2 3.3
2017-Oct-25 08:59N 47°35' W 003°01'  
Track history (hours):
 
Tides and Currents Weather Stations Pressure Air Temp Water Temp Dewpoint Dewpoint Depression Visibility Wind Speed Wind Dir Waves Ship Positions

Jabiru

Last reported at 2017-Oct-25 16:07 UTC. Time now 2017-Dec-15 16:06 UTC.
Position N 47°35' W 003°01'.
Warning: this ship's position is 50 days out of date.

Length 11 m.

Type: Sailing vessel. MMSI: 227078170.

Date/timePositionNaut miles runAvg speedWind from/ knotsBaromVisibWave heightAir tempDewpointWater temp
2017-Oct-25 16:07N 47°35' W 003°01'1 4.3
2017-Oct-25 15:58N 47°35' W 003°01'3 4.6
2017-Oct-25 15:19N 47°32' W 002°59'2 4.4
2017-Oct-25 14:51N 47°31' W 002°57'2 4.0
2017-Oct-25 14:27N 47°32' W 002°55'1 1.3
2017-Oct-25 13:43N 47°33' W 002°54'0 0.0
2017-Oct-25 13:25N 47°33' W 002°54'0 0.0
2017-Oct-25 12:49N 47°33' W 002°54'0 0.0
2017-Oct-25 12:28N 47°33' W 002°54'0 0.0
2017-Oct-25 11:19N 47°33' W 002°54'0 0.2
2017-Oct-25 10:57N 47°33' W 002°54'2 3.7
2017-Oct-25 10:30N 47°31' W 002°56'2 3.3
2017-Oct-25 10:00N 47°31' W 002°58'2 4.3
2017-Oct-25 09:29N 47°33' W 003°00'2 3.3
2017-Oct-25 08:59N 47°35' W 003°01'  

Dump ship's entire track history